Terminal Aerodrome Forecast
Issued by NWS

Home | Current Version | Previous Version | Text Only | Print | Product List | Glossary On
Versions: 1 2 3 4 5 6 7 8 9 10 11 12 13
000
FTUS46 KMTR 012300
TAFOAK
TAF
KOAK 012334Z 0200/0306 28011KT P6SM SKC
     FM020400 30005KT P6SM SKC
     FM020700 04003KT P6SM SKC
     FM021700 24003KT P6SM SKC
     FM022000 29009KT P6SM SKC
     FM030400 30005KT P6SM SKC=

USA.gov is the U.S. government's official web portal to all federal, state and local government web resources and services.